Woodworth, WI

11:34 AM CDT on March 29, 2015 (GMT -0500)
Montgomery Lake | | Change Station
CLOSE
Current Station
Personal Weather Station
Location: Salem, WI
Elevation: 823 ft
Nearby Weather Stations

Elev 823 ft 42.55 °N, 88.09 °W | Updated 4 seconds ago

Rain
Rain
35.2 °F
Feels Like 32 °F
N
4.2
Wind Variable Wind from South
Gusts 4.9 mph

Today
High -- | Low -- °F
--% Chance of Precip.
Yesterday
High -- | Low -- °F
Precip. -- in
6:40 AM 7:14 PM
Waxing Gibbous, 72% visible
Pressure 29.95 in
Visibility 10.0 miles
Clouds Few 4500 ft
Overcast 7500 ft
Windchill 32 °F
Dew Point 23 °F
Humidity 60%
Rainfall 0.02 in
Snow Depth Not available.
UV 1.0 out of 12
Pollen 3.50 out of 12
Air Quality Not available.
Flu Activity Not available.
METAR KENW 291553Z 20021G27KT 10SM -RA FEW045 OVC075 03/M06 A2992 RMK AO2 PK WND 18032/1510 RAB44 SLP140 P0000 T00281056

More Conditions Fewer Conditions

Pressure 29.95 in
Visibility 10.0 miles
Clouds Few 4500 ft
Overcast 7500 ft
Windchill 32 °F
Dew Point 23 °F
Humidity 60%
Rainfall 0.02 in
Snow Depth Not available.
UV 1.0 out of 12
Pollen 3.50 out of 12
Air Quality Not available.
Flu Activity Not available.
METAR KENW 291553Z 20021G27KT 10SM -RA FEW045 OVC075 03/M06 A2992 RMK AO2 PK WND 18032/1510 RAB44 SLP140 P0000 T00281056

More Conditions Fewer Conditions

10-Day Weather Forecast

Almanac

Astronomy

Mar. 29, 2015 Rise Set
Actual Time
Civil Twilight
Nautical Twilight
Astronomical Twilight
Moon
Length of Visible Light
Length of Day
Tomorrow will be .
, % of the Moon is Illuminated

Today's Extremes

State Highs State Lows

Community

WunderPhotos

Upload Photos

1,809,287 photos uploaded!

WunderBlogs® & News

Nearby

Air Quality

  Air Quality AQ Index Pollutant
Not available.

Snow Depth

Station Depth Elevation

Earthquake Activity

City Distance Mag. Time & Date
Minimum magnitude displayed is 2.5.

Coastal Water Temperatures

Place Temperature

Stations

Nearby Weather Stations

Station Location Temp. Windchill Dew Point Humidity Wind Precip. Elev Updated Type